Time;durP1;ratioP1;P1;durP2;ratioP2;P2;SDS_P1;SDS_P2;PMS_P1;PMS_P2;Temp;Humidity;BMP_temperature;BMP_pressure;BME280_temperature;BME280_humidity;BME280_pressure;Samples;Min_cycle;Max_cycle;Signal;HPM_P1;HPM_P2
2022/05/20 00:01:19;;;;;;;4.13;3.65;;;;;;;;;;4970081;28;20637;-62
2022/05/20 00:03:46;;;;;;;3.20;3.03;;;;;;;;;;4989330;28;20217;-62
2022/05/20 00:06:13;;;;;;;4.80;3.25;;;;;;;;;;4990177;28;20210;-61
2022/05/20 00:08:40;;;;;;;3.25;3.08;;;;;;;;;;4989685;28;20233;-61
2022/05/20 00:11:07;;;;;;;4.28;3.97;;;;;;;;;;5007448;28;20212;-61
2022/05/20 00:13:34;;;;;;;4.72;3.83;;;;;;;;;;4990773;28;20240;-61
2022/05/20 00:16:03;;;;;;;3.72;3.47;;;;;;;;;;5006336;28;20211;-60
2022/05/20 00:18:30;;;;;;;4.00;3.22;;;;;;;;;;4992366;28;20197;-61
2022/05/20 00:20:59;;;;;;;3.95;3.13;;;;;;;;;;4992025;28;20233;-61
2022/05/20 00:26:30;;;;;;;3.60;3.40;;;;;;;;;;5792228;23;20339;-61
2022/05/20 00:28:57;;;;;;;4.05;3.75;;;;;;;;;;5022380;28;20256;-60
2022/05/20 00:31:26;;;;;;;5.97;4.63;;;;;;;;;;5026101;28;20230;-60
2022/05/20 00:33:54;;;;;;;4.70;4.40;;;;;;;;;;5028282;28;20208;-60
2022/05/20 00:36:21;;;;;;;4.55;4.15;;;;;;;;;;5027938;28;20258;-61
2022/05/20 00:38:48;;;;;;;4.20;3.88;;;;;;;;;;5027286;28;20248;-61
2022/05/20 00:41:16;;;;;;;3.72;3.38;;;;;;;;;;5027641;28;20313;-61
2022/05/20 00:43:44;;;;;;;3.78;3.55;;;;;;;;;;5027583;28;20204;-60
2022/05/20 00:46:12;;;;;;;3.55;2.92;;;;;;;;;;5026707;28;20216;-60
2022/05/20 00:48:41;;;;;;;3.13;2.85;;;;;;;;;;5027500;28;20200;-61
2022/05/20 00:51:11;;;;;;;2.88;2.70;;;;;;;;;;5027792;28;20278;-62
2022/05/20 00:53:40;;;;;;;5.13;3.13;;;;;;;;;;5027847;28;20204;-61
2022/05/20 00:56:08;;;;;;;3.53;3.22;;;;;;;;;;5027869;28;20295;-62
2022/05/20 00:58:35;;;;;;;6.13;3.50;;;;;;;;;;5032182;28;20621;-62
2022/05/20 01:01:04;;;;;;;4.68;2.97;;;;;;;;;;5031814;28;20278;-62
2022/05/20 01:03:31;;;;;;;3.28;3.00;;;;;;;;;;5029548;28;20212;-62
2022/05/20 01:05:59;;;;;;;3.72;3.53;;;;;;;;;;5031807;28;20208;-61
2022/05/20 01:08:28;;;;;;;8.38;3.30;;;;;;;;;;5031834;28;20208;-62
2022/05/20 01:10:55;;;;;;;6.07;3.78;;;;;;;;;;5027507;28;20200;-62
2022/05/20 01:13:24;;;;;;;3.72;3.53;;;;;;;;;;5031778;28;20204;-62
2022/05/20 01:15:52;;;;;;;6.10;2.90;;;;;;;;;;5031301;28;20266;-62
2022/05/20 01:18:19;;;;;;;7.65;3.40;;;;;;;;;;5031022;28;20270;-62
2022/05/20 01:20:47;;;;;;;3.38;3.08;;;;;;;;;;5030540;28;20278;-62
2022/05/20 01:23:17;;;;;;;3.60;3.28;;;;;;;;;;5031535;28;20208;-62
2022/05/20 01:25:45;;;;;;;4.60;3.53;;;;;;;;;;5030398;28;20327;-62
2022/05/20 01:28:12;;;;;;;3.45;3.13;;;;;;;;;;5031024;28;20737;-62
2022/05/20 01:30:41;;;;;;;3.75;3.45;;;;;;;;;;5031217;28;20246;-62
2022/05/20 01:33:10;;;;;;;3.88;3.58;;;;;;;;;;5031478;28;20207;-62
2022/05/20 01:35:39;;;;;;;5.38;3.70;;;;;;;;;;5031074;28;20196;-62
2022/05/20 01:38:07;;;;;;;5.20;3.38;;;;;;;;;;5031250;28;20267;-62
2022/05/20 01:40:40;;;;;;;3.85;3.60;;;;;;;;;;5030361;28;20870;-62
2022/05/20 01:43:11;;;;;;;4.07;3.70;;;;;;;;;;5030081;28;20287;-62
2022/05/20 01:45:43;;;;;;;4.75;3.70;;;;;;;;;;5028391;28;20238;-62
2022/05/20 01:48:13;;;;;;;4.32;4.03;;;;;;;;;;5027895;28;20612;-62
2022/05/20 01:50:43;;;;;;;4.53;4.07;;;;;;;;;;5029674;28;20244;-62
2022/05/20 01:53:12;;;;;;;7.00;4.13;;;;;;;;;;5030085;28;20208;-62
2022/05/20 01:55:43;;;;;;;6.78;3.67;;;;;;;;;;5029422;28;20266;-62
2022/05/20 01:58:13;;;;;;;3.88;3.60;;;;;;;;;;5029653;28;20204;-61
2022/05/20 02:00:41;;;;;;;4.00;3.65;;;;;;;;;;5028815;28;20224;-62
2022/05/20 02:03:11;;;;;;;4.75;3.10;;;;;;;;;;5026152;28;20201;-62
2022/05/20 02:05:40;;;;;;;4.00;3.67;;;;;;;;;;5028775;28;20258;-62
2022/05/20 02:08:10;;;;;;;5.13;4.35;;;;;;;;;;5029816;28;20258;-62
2022/05/20 02:10:39;;;;;;;3.03;2.83;;;;;;;;;;5030396;28;20674;-62
2022/05/20 02:13:08;;;;;;;3.38;3.15;;;;;;;;;;5030203;28;20212;-62
2022/05/20 02:15:38;;;;;;;6.07;3.70;;;;;;;;;;5030483;28;20208;-62
2022/05/20 02:18:06;;;;;;;4.13;3.53;;;;;;;;;;5030731;28;20216;-62
2022/05/20 02:20:36;;;;;;;3.47;3.17;;;;;;;;;;5030539;28;20228;-62
2022/05/20 02:23:04;;;;;;;4.05;3.72;;;;;;;;;;5029933;28;20266;-62
2022/05/20 02:25:33;;;;;;;6.32;4.35;;;;;;;;;;5023952;28;20577;-62
2022/05/20 02:28:02;;;;;;;4.95;4.43;;;;;;;;;;5025743;28;20282;-62
2022/05/20 02:30:33;;;;;;;4.78;3.40;;;;;;;;;;5029223;28;20205;-62
2022/05/20 02:33:04;;;;;;;6.10;4.38;;;;;;;;;;5030060;28;20204;-61
2022/05/20 02:35:31;;;;;;;3.70;3.40;;;;;;;;;;5030683;28;20274;-62
2022/05/20 02:38:05;;;;;;;4.32;4.03;;;;;;;;;;5030318;28;20211;-62
2022/05/20 02:40:32;;;;;;;4.40;4.10;;;;;;;;;;5027786;28;20236;-62
2022/05/20 02:42:59;;;;;;;3.05;2.92;;;;;;;;;;5027700;28;20215;-62
2022/05/20 02:45:26;;;;;;;4.00;3.80;;;;;;;;;;5027755;28;20262;-61
2022/05/20 02:47:54;;;;;;;4.63;4.32;;;;;;;;;;5028458;28;20220;-62
2022/05/20 02:50:21;;;;;;;6.40;4.30;;;;;;;;;;5026651;28;20659;-62
2022/05/20 02:52:48;;;;;;;4.28;3.97;;;;;;;;;;5026742;28;20476;-62
2022/05/20 02:55:15;;;;;;;7.38;4.50;;;;;;;;;;5027562;28;20983;-62
2022/05/20 02:57:44;;;;;;;4.55;4.20;;;;;;;;;;5028332;28;20205;-61
2022/05/20 03:05:52;;;;;;;4.68;4.20;;;;;;;;;;5027250;28;20215;-61
2022/05/20 03:08:19;;;;;;;5.43;4.75;;;;;;;;;;5027432;28;20931;-60
2022/05/20 03:10:46;;;;;;;5.07;3.83;;;;;;;;;;5027629;28;20200;-61
2022/05/20 03:13:13;;;;;;;8.27;4.38;;;;;;;;;;5027595;28;20287;-60
2022/05/20 03:15:41;;;;;;;5.78;4.45;;;;;;;;;;5025849;28;20235;-60
2022/05/20 03:18:10;;;;;;;7.88;4.80;;;;;;;;;;5027153;28;20203;-61
2022/05/20 03:20:38;;;;;;;8.10;4.30;;;;;;;;;;5026708;28;20216;-61
2022/05/20 03:23:05;;;;;;;5.72;4.35;;;;;;;;;;5027201;28;20205;-61
2022/05/20 03:25:32;;;;;;;8.60;4.30;;;;;;;;;;5025358;28;20224;-61
2022/05/20 03:27:59;;;;;;;4.85;4.45;;;;;;;;;;5026713;28;20243;-61
2022/05/20 03:30:27;;;;;;;8.52;4.70;;;;;;;;;;5028149;28;20631;-61
2022/05/20 03:32:54;;;;;;;5.03;4.57;;;;;;;;;;5026901;28;20216;-61
2022/05/20 03:35:22;;;;;;;8.27;5.43;;;;;;;;;;5026984;28;20262;-61
2022/05/20 03:37:49;;;;;;;5.53;5.03;;;;;;;;;;5026455;28;20208;-61
2022/05/20 03:40:16;;;;;;;5.43;4.93;;;;;;;;;;5027352;28;20270;-60
2022/05/20 03:42:43;;;;;;;6.40;5.32;;;;;;;;;;5026957;28;20209;-61
2022/05/20 03:45:11;;;;;;;5.75;5.25;;;;;;;;;;5027319;28;20204;-60
2022/05/20 03:47:38;;;;;;;6.60;5.53;;;;;;;;;;5026447;28;20696;-60
2022/05/20 03:50:06;;;;;;;6.47;5.25;;;;;;;;;;5027132;28;20205;-60
2022/05/20 03:52:34;;;;;;;6.35;5.75;;;;;;;;;;5027550;28;20811;-60
2022/05/20 03:55:02;;;;;;;5.70;5.20;;;;;;;;;;5024203;28;20271;-60
2022/05/20 03:57:29;;;;;;;6.32;5.72;;;;;;;;;;5027076;28;20204;-61
2022/05/20 03:59:56;;;;;;;6.05;5.45;;;;;;;;;;5027490;28;20254;-60
2022/05/20 04:02:23;;;;;;;7.43;5.40;;;;;;;;;;5026873;28;20220;-60
2022/05/20 04:04:52;;;;;;;6.22;5.65;;;;;;;;;;5027162;28;20239;-60
2022/05/20 04:07:20;;;;;;;7.07;6.50;;;;;;;;;;5024174;28;20490;-60
2022/05/20 04:09:49;;;;;;;6.82;6.07;;;;;;;;;;5027181;28;20231;-61
2022/05/20 04:12:21;;;;;;;7.47;6.38;;;;;;;;;;5026570;28;20646;-61
2022/05/20 04:14:48;;;;;;;8.55;6.63;;;;;;;;;;5026816;28;20204;-60
2022/05/20 04:17:15;;;;;;;7.75;6.85;;;;;;;;;;5026034;28;20225;-60
2022/05/20 04:19:42;;;;;;;10.32;6.68;;;;;;;;;;5027185;28;20211;-60
2022/05/20 04:22:10;;;;;;;7.88;6.70;;;;;;;;;;5026192;28;20236;-61
2022/05/20 04:24:37;;;;;;;7.35;6.65;;;;;;;;;;5020510;28;20607;-60
2022/05/20 04:27:06;;;;;;;7.53;6.82;;;;;;;;;;5027019;28;20247;-60
2022/05/20 04:29:34;;;;;;;7.20;6.50;;;;;;;;;;5027543;28;20200;-60
2022/05/20 04:32:01;;;;;;;7.68;6.78;;;;;;;;;;5026009;28;20573;-60
2022/05/20 04:34:28;;;;;;;7.47;6.75;;;;;;;;;;5027310;28;20239;-61
2022/05/20 04:36:55;;;;;;;7.13;5.80;;;;;;;;;;5023130;28;20274;-61
2022/05/20 04:39:23;;;;;;;10.63;6.82;;;;;;;;;;5026705;28;20208;-60
2022/05/20 04:47:24;;;;;;;10.63;8.13;;;;;;;;;;5021187;28;20212;-61
2022/05/20 04:49:51;;;;;;;8.82;7.05;;;;;;;;;;5026932;28;20641;-61
2022/05/20 04:52:18;;;;;;;11.07;7.13;;;;;;;;;;5026754;28;20834;-61
2022/05/20 04:54:50;;;;;;;9.50;7.20;;;;;;;;;;5024616;28;20212;-62
2022/05/20 04:57:35;;;;;;;10.27;7.38;;;;;;;;;;5025884;28;20204;-61
2022/05/20 05:00:06;;;;;;;11.63;7.40;;;;;;;;;;5022379;28;20204;-61
2022/05/20 05:02:34;;;;;;;10.82;7.47;;;;;;;;;;5026450;28;20835;-61
2022/05/20 05:05:01;;;;;;;9.45;7.05;;;;;;;;;;5024773;28;20557;-62
2022/05/20 05:07:28;;;;;;;9.73;6.82;;;;;;;;;;5026988;28;20577;-61
2022/05/20 05:09:55;;;;;;;11.80;7.38;;;;;;;;;;5026787;28;20204;-61
2022/05/20 05:12:23;;;;;;;8.65;6.72;;;;;;;;;;5025458;28;20204;-61
2022/05/20 05:14:51;;;;;;;8.82;7.35;;;;;;;;;;5020977;28;20219;-61
2022/05/20 05:18:09;;;;;;;8.15;6.65;;;;;;;;;;5015627;28;20212;-62
2022/05/20 05:20:09;;;;;;;7.30;6.60;;;;;;;;;;5017422;28;20205;-61
2022/05/20 05:22:36;;;;;;;8.63;6.25;;;;;;;;;;5015628;28;20224;-61
2022/05/20 05:25:03;;;;;;;7.38;6.25;;;;;;;;;;5017811;28;20211;-61
2022/05/20 05:27:30;;;;;;;8.35;7.07;;;;;;;;;;5015836;28;20305;-61
2022/05/20 05:29:57;;;;;;;8.27;6.50;;;;;;;;;;5015444;28;20201;-61
2022/05/20 05:32:26;;;;;;;5.82;5.18;;;;;;;;;;5017589;28;20200;-61
2022/05/20 05:34:53;;;;;;;7.72;6.35;;;;;;;;;;5016192;28;20717;-61
2022/05/20 05:37:20;;;;;;;8.23;6.72;;;;;;;;;;5018158;28;20221;-61
2022/05/20 05:39:47;;;;;;;9.20;5.78;;;;;;;;;;5018545;28;20201;-61
2022/05/20 05:42:14;;;;;;;5.70;5.10;;;;;;;;;;5017994;28;20722;-61
2022/05/20 05:44:41;;;;;;;12.27;6.30;;;;;;;;;;5022290;28;20231;-61
2022/05/20 05:47:09;;;;;;;20.70;6.15;;;;;;;;;;5021563;28;20216;-62
2022/05/20 05:49:37;;;;;;;10.48;6.40;;;;;;;;;;5016921;28;20204;-61
2022/05/20 05:52:04;;;;;;;9.63;6.15;;;;;;;;;;5019900;28;20201;-62
2022/05/20 05:54:32;;;;;;;7.10;6.18;;;;;;;;;;5020073;28;20217;-62
2022/05/20 05:56:59;;;;;;;7.03;6.28;;;;;;;;;;5026466;28;20236;-62
2022/05/20 05:59:26;;;;;;;7.50;6.07;;;;;;;;;;5022063;28;20299;-62
2022/05/20 06:01:58;;;;;;;6.72;5.97;;;;;;;;;;5029213;28;20592;-62
2022/05/20 06:04:25;;;;;;;7.05;6.35;;;;;;;;;;5029461;28;20291;-62
2022/05/20 06:06:54;;;;;;;6.10;5.60;;;;;;;;;;5026909;28;20666;-62
2022/05/20 06:09:21;;;;;;;5.93;5.30;;;;;;;;;;5029486;28;20204;-62
2022/05/20 06:11:49;;;;;;;8.18;6.18;;;;;;;;;;5027048;28;20204;-60
2022/05/20 06:14:16;;;;;;;6.40;5.80;;;;;;;;;;5029236;28;20571;-59
2022/05/20 06:16:43;;;;;;;10.07;4.65;;;;;;;;;;5029645;28;20200;-61
2022/05/20 06:19:10;;;;;;;6.28;5.22;;;;;;;;;;5028196;28;20196;-61
2022/05/20 06:21:40;;;;;;;6.13;5.55;;;;;;;;;;5023621;28;20630;-61
2022/05/20 06:24:09;;;;;;;5.05;4.68;;;;;;;;;;5027418;28;20211;-61
2022/05/20 06:26:36;;;;;;;6.18;5.20;;;;;;;;;;5028233;28;20611;-62
2022/05/20 06:29:04;;;;;;;6.95;5.43;;;;;;;;;;5028380;28;20670;-61
2022/05/20 06:31:31;;;;;;;5.85;4.68;;;;;;;;;;5028195;28;20204;-61
2022/05/20 06:33:58;;;;;;;6.07;4.85;;;;;;;;;;5022791;28;20205;-61
2022/05/20 06:41:56;;;;;;;7.40;5.38;;;;;;;;;;5029138;28;20234;-60
2022/05/20 06:44:24;;;;;;;5.50;4.13;;;;;;;;;;5023047;28;20205;-60
2022/05/20 06:46:51;;;;;;;5.88;5.43;;;;;;;;;;5019054;28;20212;-60
2022/05/20 06:49:18;;;;;;;5.25;4.65;;;;;;;;;;5024515;28;20666;-60
2022/05/20 06:51:45;;;;;;;5.80;5.25;;;;;;;;;;5022539;28;20662;-60
2022/05/20 06:54:13;;;;;;;6.43;5.82;;;;;;;;;;5025757;28;20204;-64
2022/05/20 06:56:44;;;;;;;6.53;5.85;;;;;;;;;;5025304;28;20992;-62
2022/05/20 06:59:11;;;;;;;9.68;6.22;;;;;;;;;;5024631;28;20667;-62
2022/05/20 07:01:38;;;;;;;7.97;6.38;;;;;;;;;;5028012;28;20258;-61
2022/05/20 07:04:06;;;;;;;6.20;5.60;;;;;;;;;;5026323;28;20780;-62
2022/05/20 07:06:34;;;;;;;6.03;5.50;;;;;;;;;;5028541;28;20212;-62
2022/05/20 07:09:01;;;;;;;6.35;5.75;;;;;;;;;;5019672;28;20207;-62
2022/05/20 07:11:29;;;;;;;5.47;5.00;;;;;;;;;;5016307;28;20206;-61
2022/05/20 07:13:58;;;;;;;5.20;4.78;;;;;;;;;;5023257;28;20213;-61
2022/05/20 07:16:25;;;;;;;6.38;5.82;;;;;;;;;;5025036;28;20255;-59
2022/05/20 07:18:53;;;;;;;6.20;5.60;;;;;;;;;;5021234;28;20212;-59
2022/05/20 07:21:20;;;;;;;6.25;5.65;;;;;;;;;;5018500;28;20266;-59
2022/05/20 07:23:47;;;;;;;8.55;5.55;;;;;;;;;;5018976;28;20216;-59
2022/05/20 07:26:16;;;;;;;6.25;5.70;;;;;;;;;;5019298;28;20225;-59
2022/05/20 07:28:44;;;;;;;8.60;6.00;;;;;;;;;;5020840;28;20252;-59
2022/05/20 07:31:11;;;;;;;6.97;5.88;;;;;;;;;;5028732;28;20259;-60
2022/05/20 07:33:38;;;;;;;6.13;5.63;;;;;;;;;;5026117;28;20278;-59
2022/05/20 07:36:06;;;;;;;6.75;6.20;;;;;;;;;;5020118;28;20258;-59
2022/05/20 07:38:33;;;;;;;6.60;5.95;;;;;;;;;;5022297;28;20775;-63
2022/05/20 07:41:00;;;;;;;7.00;6.40;;;;;;;;;;5021792;28;20546;-59
2022/05/20 07:43:28;;;;;;;7.53;6.55;;;;;;;;;;5021084;28;20235;-60
2022/05/20 07:45:56;;;;;;;8.85;6.82;;;;;;;;;;5022755;28;20208;-61
2022/05/20 07:48:23;;;;;;;7.68;6.43;;;;;;;;;;5020119;28;20213;-62
2022/05/20 07:50:52;;;;;;;9.48;7.15;;;;;;;;;;5019808;28;20580;-60
2022/05/20 07:53:21;;;;;;;8.60;7.22;;;;;;;;;;5021892;28;20205;-61
2022/05/20 07:55:58;;;;;;;8.13;7.32;;;;;;;;;;5018739;28;20226;-60
2022/05/20 07:58:28;;;;;;;7.97;6.95;;;;;;;;;;5021575;28;20200;-60
2022/05/20 08:00:58;;;;;;;8.10;7.38;;;;;;;;;;5008060;28;20217;-61
2022/05/20 08:06:11;;;;;;;9.10;7.75;;;;;;;;;;5008871;28;20211;-60
2022/05/20 08:08:38;;;;;;;8.32;7.55;;;;;;;;;;5009334;28;20213;-60
2022/05/20 08:11:05;;;;;;;8.55;7.75;;;;;;;;;;5024879;28;20220;-61
2022/05/20 08:13:32;;;;;;;8.73;7.55;;;;;;;;;;5028713;28;20250;-61
2022/05/20 08:16:00;;;;;;;9.88;7.75;;;;;;;;;;5028615;28;20258;-61
2022/05/20 08:18:27;;;;;;;7.97;7.28;;;;;;;;;;5028754;28;20227;-61
2022/05/20 08:20:55;;;;;;;9.93;7.63;;;;;;;;;;5028476;28;20277;-61
2022/05/20 08:23:22;;;;;;;9.45;8.23;;;;;;;;;;5027422;28;20231;-61
2022/05/20 08:25:49;;;;;;;8.88;7.68;;;;;;;;;;5027486;28;20936;-62
2022/05/20 08:28:16;;;;;;;9.02;8.05;;;;;;;;;;5024059;28;20267;-61
2022/05/20 08:30:43;;;;;;;9.70;7.47;;;;;;;;;;5024190;28;20213;-61
2022/05/20 08:33:11;;;;;;;11.27;8.38;;;;;;;;;;5008399;28;20667;-61
2022/05/20 08:35:38;;;;;;;8.32;7.63;;;;;;;;;;5010391;28;20208;-61
2022/05/20 08:38:05;;;;;;;9.15;8.23;;;;;;;;;;5027481;28;20674;-61
2022/05/20 08:40:36;;;;;;;8.98;8.13;;;;;;;;;;5026832;28;20208;-61
2022/05/20 08:43:03;;;;;;;10.32;8.85;;;;;;;;;;5017183;28;20446;-60
2022/05/20 08:45:31;;;;;;;7.68;6.97;;;;;;;;;;5020342;28;20258;-62
2022/05/20 08:47:58;;;;;;;12.45;8.75;;;;;;;;;;5018703;28;20263;-61
2022/05/20 08:50:37;;;;;;;8.15;7.45;;;;;;;;;;5017530;28;20200;-61
2022/05/20 08:53:07;;;;;;;10.98;7.47;;;;;;;;;;5016459;28;20197;-64
2022/05/20 08:55:34;;;;;;;8.25;7.07;;;;;;;;;;5008213;28;20295;-66
2022/05/20 08:58:02;;;;;;;9.38;7.35;;;;;;;;;;5024401;28;20230;-65
2022/05/20 09:00:30;;;;;;;7.82;7.13;;;;;;;;;;5021336;28;20577;-63
2022/05/20 09:02:57;;;;;;;11.50;7.97;;;;;;;;;;5016158;28;20240;-61
2022/05/20 09:05:26;;;;;;;8.85;7.95;;;;;;;;;;5021381;28;20205;-64
2022/05/20 09:08:03;;;;;;;8.77;7.90;;;;;;;;;;5022519;28;20239;-64
2022/05/20 09:10:32;;;;;;;10.02;7.45;;;;;;;;;;5016108;28;20217;-64
2022/05/20 09:13:10;;;;;;;7.40;6.72;;;;;;;;;;5009388;28;20294;-64
2022/05/20 09:15:46;;;;;;;7.57;6.97;;;;;;;;;;5026033;28;20212;-67
2022/05/20 09:18:21;;;;;;;8.73;7.47;;;;;;;;;;5015811;28;20279;-64
2022/05/20 09:20:49;;;;;;;9.02;8.15;;;;;;;;;;5017160;28;20211;-64
2022/05/20 09:23:20;;;;;;;8.48;7.75;;;;;;;;;;5013658;28;20903;-64
2022/05/20 09:25:48;;;;;;;7.70;6.97;;;;;;;;;;5027386;28;20247;-62
2022/05/20 09:28:18;;;;;;;6.38;5.78;;;;;;;;;;5017044;28;20705;-62
2022/05/20 09:30:47;;;;;;;5.70;5.20;;;;;;;;;;5018290;28;20217;-62
2022/05/20 09:33:17;;;;;;;5.35;4.85;;;;;;;;;;5009649;28;20213;-62
2022/05/20 09:35:47;;;;;;;5.05;4.57;;;;;;;;;;5023799;28;20208;-64
2022/05/20 09:38:31;;;;;;;5.68;5.18;;;;;;;;;;5022068;28;20228;-62
2022/05/20 09:40:58;;;;;;;5.32;4.88;;;;;;;;;;5024021;28;20463;-63
2022/05/20 09:43:28;;;;;;;6.13;5.60;;;;;;;;;;5018139;28;20240;-63
2022/05/20 09:45:56;;;;;;;6.55;5.85;;;;;;;;;;5024092;28;20738;-63
2022/05/20 09:48:24;;;;;;;5.32;4.93;;;;;;;;;;5020562;28;20819;-63
2022/05/20 09:51:03;;;;;;;5.13;4.63;;;;;;;;;;5019904;28;20266;-62
2022/05/20 09:53:36;;;;;;;5.38;4.88;;;;;;;;;;5030608;28;20290;-62
2022/05/20 09:56:14;;;;;;;5.40;3.85;;;;;;;;;;5029817;28;20267;-63
2022/05/20 09:58:41;;;;;;;4.78;4.38;;;;;;;;;;5030444;28;20231;-62
2022/05/20 10:01:10;;;;;;;4.53;4.22;;;;;;;;;;5021155;28;20562;-63
2022/05/20 10:03:39;;;;;;;4.47;4.25;;;;;;;;;;5028900;28;20734;-62
2022/05/20 10:06:09;;;;;;;4.90;3.90;;;;;;;;;;5030059;28;20209;-62
2022/05/20 10:08:40;;;;;;;4.45;3.97;;;;;;;;;;5029710;28;20822;-62
2022/05/20 10:11:09;;;;;;;6.82;4.07;;;;;;;;;;5029942;28;20266;-62
2022/05/20 10:13:43;;;;;;;5.70;5.18;;;;;;;;;;5018203;28;20209;-62
2022/05/20 10:16:15;;;;;;;4.88;4.57;;;;;;;;;;5026810;28;20533;-61
2022/05/20 10:18:46;;;;;;;5.15;4.68;;;;;;;;;;5027548;28;20216;-62
2022/05/20 10:21:16;;;;;;;4.88;4.47;;;;;;;;;;5029926;28;20212;-62
2022/05/20 10:23:49;;;;;;;9.57;5.65;;;;;;;;;;5014295;28;20240;-62
2022/05/20 10:26:28;;;;;;;5.70;5.20;;;;;;;;;;5029373;28;20315;-62
2022/05/20 10:34:32;;;;;;;5.82;5.45;;;;;;;;;;5023576;28;20224;-62
2022/05/20 10:37:03;;;;;;;5.85;5.45;;;;;;;;;;5011845;28;20263;-62
2022/05/20 10:39:37;;;;;;;6.47;5.30;;;;;;;;;;5029844;28;20207;-64
2022/05/20 10:42:14;;;;;;;6.43;5.82;;;;;;;;;;5029913;28;20204;-63
2022/05/20 10:50:31;;;;;;;6.35;5.95;;;;;;;;;;5028474;28;20243;-62
2022/05/20 10:53:07;;;;;;;7.47;6.85;;;;;;;;;;5029271;28;20196;-62
2022/05/20 10:55:44;;;;;;;6.72;5.72;;;;;;;;;;5022708;28;20220;-62
2022/05/20 10:58:23;;;;;;;7.43;6.70;;;;;;;;;;5009759;28;20267;-64
2022/05/20 11:00:52;;;;;;;6.03;5.45;;;;;;;;;;5019768;28;20262;-62
2022/05/20 11:03:29;;;;;;;7.22;5.57;;;;;;;;;;5029735;28;20236;-60
2022/05/20 11:06:04;;;;;;;7.18;6.43;;;;;;;;;;5029802;28;20215;-59
2022/05/20 11:08:37;;;;;;;7.18;6.35;;;;;;;;;;5026751;28;20210;-59
2022/05/20 11:11:19;;;;;;;7.68;6.78;;;;;;;;;;5016963;28;20208;-60
2022/05/20 11:13:55;;;;;;;7.63;5.97;;;;;;;;;;5016667;28;20204;-60
2022/05/20 11:16:29;;;;;;;7.70;6.72;;;;;;;;;;5027688;28;20211;-60
2022/05/20 11:19:11;;;;;;;7.97;7.30;;;;;;;;;;5024004;28;20220;-61
2022/05/20 11:21:47;;;;;;;10.23;7.45;;;;;;;;;;5010011;28;20559;-60
2022/05/20 11:24:26;;;;;;;8.00;6.80;;;;;;;;;;5021369;28;20285;-61
2022/05/20 11:27:06;;;;;;;7.05;6.35;;;;;;;;;;5020193;28;20232;-61
2022/05/20 11:29:44;;;;;;;6.43;5.63;;;;;;;;;;5026819;28;20742;-60
2022/05/20 11:32:12;;;;;;;6.40;5.90;;;;;;;;;;5028791;28;20266;-59
2022/05/20 11:34:48;;;;;;;8.88;6.65;;;;;;;;;;5028839;28;20262;-60
2022/05/20 11:37:25;;;;;;;6.72;6.13;;;;;;;;;;5028374;28;20208;-60
2022/05/20 11:40:16;;;;;;;6.18;5.68;;;;;;;;;;5027570;28;20342;-59
2022/05/20 11:42:52;;;;;;;6.82;6.18;;;;;;;;;;5028530;28;20207;-60
2022/05/20 11:45:23;;;;;;;8.88;4.95;;;;;;;;;;5028350;28;20215;-59
2022/05/20 11:48:02;;;;;;;5.93;5.43;;;;;;;;;;5028771;28;20274;-59
2022/05/20 11:50:34;;;;;;;5.95;5.35;;;;;;;;;;5022246;28;20216;-60
2022/05/20 11:53:07;;;;;;;5.13;4.80;;;;;;;;;;5027818;28;20209;-59
2022/05/20 11:55:37;;;;;;;7.55;5.93;;;;;;;;;;5028371;28;20204;-58
2022/05/20 11:58:07;;;;;;;5.93;5.43;;;;;;;;;;5028406;28;20197;-58
2022/05/20 12:00:38;;;;;;;5.35;4.95;;;;;;;;;;5027882;28;20204;-58
2022/05/20 12:03:07;;;;;;;5.57;5.10;;;;;;;;;;5026680;28;20212;-59
2022/05/20 12:05:40;;;;;;;6.07;4.85;;;;;;;;;;5027958;28;20200;-60
2022/05/20 12:08:07;;;;;;;6.25;5.07;;;;;;;;;;5028831;28;20212;-61
2022/05/20 12:10:48;;;;;;;7.45;4.95;;;;;;;;;;5028497;28;20205;-63
2022/05/20 12:13:19;;;;;;;4.47;4.18;;;;;;;;;;5026024;28;20299;-60
2022/05/20 12:15:47;;;;;;;5.18;4.70;;;;;;;;;;5020140;28;20236;-59
2022/05/20 12:24:15;;;;;;;4.75;4.45;;;;;;;;;;5028516;28;20243;-59
2022/05/20 12:26:48;;;;;;;5.78;5.00;;;;;;;;;;5018048;28;20290;-59
2022/05/20 12:29:34;;;;;;;4.93;4.55;;;;;;;;;;5028443;28;20219;-60
2022/05/20 12:32:22;;;;;;;4.82;4.43;;;;;;;;;;5028393;28;20208;-59
2022/05/20 12:34:56;;;;;;;6.85;4.20;;;;;;;;;;5027166;28;20212;-59
2022/05/20 12:37:38;;;;;;;4.88;4.50;;;;;;;;;;5015661;28;20201;-60
2022/05/20 12:40:05;;;;;;;7.07;4.13;;;;;;;;;;5026766;28;20243;-63
2022/05/20 12:42:41;;;;;;;4.80;4.40;;;;;;;;;;5027370;28;20670;-59
2022/05/20 12:45:11;;;;;;;4.68;4.40;;;;;;;;;;5019239;28;20224;-61
2022/05/20 12:47:40;;;;;;;4.57;4.38;;;;;;;;;;5026992;28;20294;-60
2022/05/20 12:50:15;;;;;;;5.50;5.13;;;;;;;;;;5028410;28;20212;-61
2022/05/20 12:52:47;;;;;;;4.90;4.60;;;;;;;;;;5025623;28;20207;-66
2022/05/20 12:55:21;;;;;;;5.00;4.35;;;;;;;;;;5017099;28;20678;-66
2022/05/20 12:57:50;;;;;;;4.53;4.30;;;;;;;;;;5023431;28;20220;-63
2022/05/20 13:00:17;;;;;;;4.72;4.43;;;;;;;;;;5018734;28;20204;-61
2022/05/20 13:02:46;;;;;;;4.47;4.25;;;;;;;;;;5027649;28;20216;-61
2022/05/20 13:05:20;;;;;;;5.35;4.75;;;;;;;;;;5026960;28;20530;-63
2022/05/20 13:07:48;;;;;;;4.88;4.55;;;;;;;;;;5024922;28;20278;-61
2022/05/20 13:10:23;;;;;;;4.43;4.10;;;;;;;;;;5026975;28;20204;-60
2022/05/20 13:12:50;;;;;;;6.13;4.30;;;;;;;;;;5016335;28;20218;-64
2022/05/20 13:15:19;;;;;;;5.43;3.85;;;;;;;;;;5022009;28;20200;-60
2022/05/20 13:17:51;;;;;;;5.22;4.72;;;;;;;;;;5025645;28;20299;-60
2022/05/20 13:20:19;;;;;;;4.35;4.15;;;;;;;;;;5022617;28;20246;-60
2022/05/20 13:22:50;;;;;;;4.43;4.13;;;;;;;;;;5025809;28;20262;-60
2022/05/20 13:25:18;;;;;;;6.25;4.78;;;;;;;;;;5023836;28;20227;-61
2022/05/20 13:27:46;;;;;;;4.90;4.45;;;;;;;;;;5016977;28;20291;-59
2022/05/20 13:30:14;;;;;;;4.85;4.13;;;;;;;;;;5016476;28;20622;-59
2022/05/20 13:32:41;;;;;;;4.93;4.68;;;;;;;;;;5021805;28;20204;-61
2022/05/20 13:35:09;;;;;;;4.93;4.68;;;;;;;;;;5022123;28;20247;-61
2022/05/20 13:37:43;;;;;;;4.57;4.32;;;;;;;;;;5016544;28;20235;-61
2022/05/20 13:40:13;;;;;;;4.75;4.45;;;;;;;;;;5026792;28;20236;-61
2022/05/20 13:42:41;;;;;;;4.60;4.30;;;;;;;;;;5024948;28;20224;-61
2022/05/20 13:45:15;;;;;;;3.97;3.78;;;;;;;;;;5025958;28;20236;-62
2022/05/20 13:50:27;;;;;;;4.32;3.97;;;;;;;;;;5010807;28;20209;-59
2022/05/20 13:52:58;;;;;;;6.15;4.28;;;;;;;;;;5026312;28;20208;-59
2022/05/20 13:55:29;;;;;;;5.07;4.60;;;;;;;;;;5027480;28;20215;-59
2022/05/20 13:57:56;;;;;;;3.97;3.83;;;;;;;;;;5025576;28;20212;-59
2022/05/20 14:00:28;;;;;;;4.75;4.13;;;;;;;;;;5025308;28;20792;-59
2022/05/20 14:02:56;;;;;;;4.32;3.75;;;;;;;;;;5016880;28;20303;-59
2022/05/20 14:05:27;;;;;;;5.35;4.05;;;;;;;;;;5011493;28;20232;-59
2022/05/20 14:07:56;;;;;;;4.60;3.90;;;;;;;;;;5030834;28;20586;-59
2022/05/20 14:10:32;;;;;;;4.53;4.13;;;;;;;;;;5031070;28;20209;-61
2022/05/20 14:13:00;;;;;;;5.78;3.50;;;;;;;;;;5029430;28;20200;-61
2022/05/20 14:15:30;;;;;;;3.35;3.15;;;;;;;;;;5023324;28;20207;-61
2022/05/20 14:17:58;;;;;;;3.92;3.63;;;;;;;;;;5031418;28;20208;-61
2022/05/20 14:20:25;;;;;;;4.13;3.83;;;;;;;;;;5031041;28;20343;-61
2022/05/20 14:22:52;;;;;;;3.85;3.50;;;;;;;;;;5018870;28;20216;-61
2022/05/20 14:25:23;;;;;;;6.68;3.47;;;;;;;;;;5022205;28;20236;-62
2022/05/20 14:27:52;;;;;;;6.35;4.10;;;;;;;;;;5030794;28;20272;-59
2022/05/20 14:30:25;;;;;;;4.30;3.92;;;;;;;;;;5030087;28;20208;-59
2022/05/20 14:32:54;;;;;;;4.00;3.70;;;;;;;;;;5018095;28;20621;-59
2022/05/20 14:35:24;;;;;;;3.90;3.60;;;;;;;;;;5012391;28;20223;-58
2022/05/20 14:37:52;;;;;;;5.22;3.40;;;;;;;;;;5020271;28;20634;-58
2022/05/20 14:40:19;;;;;;;4.35;3.95;;;;;;;;;;5018123;28;20275;-58
2022/05/20 14:42:53;;;;;;;5.07;3.60;;;;;;;;;;5030909;28;20274;-59
2022/05/20 14:45:23;;;;;;;5.85;3.60;;;;;;;;;;5030122;28;20227;-58
2022/05/20 14:47:52;;;;;;;7.00;3.95;;;;;;;;;;5030536;28;20212;-58
2022/05/20 14:50:21;;;;;;;4.10;3.70;;;;;;;;;;5030384;28;20212;-59
2022/05/20 14:52:50;;;;;;;4.05;3.85;;;;;;;;;;5029427;28;20262;-59
2022/05/20 14:55:18;;;;;;;4.65;3.45;;;;;;;;;;5020676;28;20205;-59
2022/05/20 14:58:00;;;;;;;3.83;3.53;;;;;;;;;;5029900;28;20208;-59
2022/05/20 15:00:30;;;;;;;3.75;3.08;;;;;;;;;;5027384;28;20219;-60
2022/05/20 15:02:57;;;;;;;8.60;2.80;;;;;;;;;;5027605;28;20682;-60
2022/05/20 15:05:25;;;;;;;2.08;2.08;;;;;;;;;;5026007;28;20307;-62
2022/05/20 15:07:56;;;;;;;5.25;2.63;;;;;;;;;;5025398;28;20197;-61
2022/05/20 15:10:23;;;;;;;2.65;2.50;;;;;;;;;;5024048;28;20216;-62
2022/05/20 15:12:53;;;;;;;6.00;2.25;;;;;;;;;;5017719;28;20223;-61
2022/05/20 15:15:21;;;;;;;2.55;2.35;;;;;;;;;;5009800;28;20209;-61
2022/05/20 15:18:06;;;;;;;2.50;2.28;;;;;;;;;;5019785;28;20216;-61
2022/05/20 15:20:34;;;;;;;3.33;2.50;;;;;;;;;;5013194;28;20211;-61
2022/05/20 15:23:03;;;;;;;3.83;2.08;;;;;;;;;;5028003;28;20205;-62
2022/05/20 15:25:30;;;;;;;2.60;1.90;;;;;;;;;;5029538;28;20723;-62
2022/05/20 15:27:57;;;;;;;1.80;1.70;;;;;;;;;;5030038;28;20604;-62
2022/05/20 15:30:24;;;;;;;2.65;2.40;;;;;;;;;;5029610;28;20216;-62
2022/05/20 15:35:38;;;;;;;2.10;1.80;;;;;;;;;;5013369;28;20733;-63
2022/05/20 15:38:09;;;;;;;1.98;1.88;;;;;;;;;;5029087;28;20259;-62
2022/05/20 15:40:40;;;;;;;2.83;2.13;;;;;;;;;;5028115;28;20212;-63
2022/05/20 15:43:07;;;;;;;2.00;1.90;;;;;;;;;;5029024;28;20193;-63